Time;durP1;ratioP1;P1;durP2;ratioP2;P2;SDS_P1;SDS_P2;PMS_P1;PMS_P2;Temp;Humidity;BMP_temperature;BMP_pressure;BME280_temperature;BME280_humidity;BME280_pressure;Samples;Min_cycle;Max_cycle;Signal;HPM_P1;HPM_P2
2022/05/31 00:09:44;;;;;;;;;;;16.00;60.10;;;;;;20870002;28;19919;-78
2022/05/31 00:19:44;;;;;;;;;;;16.00;60.10;;;;;;20885491;28;19923;-78
2022/05/31 00:29:47;;;;;;;;;;;16.00;60.00;;;;;;20841932;28;19979;-77
2022/05/31 00:39:47;;;;;;;;;;;16.00;60.00;;;;;;20869281;28;19948;-77
2022/05/31 00:49:51;;;;;;;;;;;16.00;60.00;;;;;;20884532;28;20275;-77
2022/05/31 00:59:56;;;;;;;;;;;16.00;60.00;;;;;;20903549;28;19916;-77
2022/05/31 01:09:57;;;;;;;;;;;16.00;59.90;;;;;;20865576;28;19924;-78
2022/05/31 01:20:17;;;;;;;;;;;16.00;59.90;;;;;;20900381;28;20011;-78
2022/05/31 01:30:29;;;;;;;;;;;15.90;59.80;;;;;;20868176;28;19909;-77
2022/05/31 01:40:39;;;;;;;;;;;15.90;59.80;;;;;;20879149;28;20327;-77
2022/05/31 01:50:40;;;;;;;;;;;16.00;59.80;;;;;;20862287;28;19923;-78
2022/05/31 02:00:40;;;;;;;;;;;15.90;59.70;;;;;;20894994;28;19917;-78
2022/05/31 02:10:41;;;;;;;;;;;15.80;59.60;;;;;;20892814;28;19917;-77
2022/05/31 02:20:43;;;;;;;;;;;15.90;59.70;;;;;;20875764;28;19916;-77
2022/05/31 02:30:44;;;;;;;;;;;15.90;59.60;;;;;;20892858;28;19912;-76
2022/05/31 02:40:44;;;;;;;;;;;15.90;59.50;;;;;;20891092;28;20266;-77
2022/05/31 02:50:45;;;;;;;;;;;15.80;59.40;;;;;;20890764;28;19916;-77
2022/05/31 03:00:46;;;;;;;;;;;15.80;59.40;;;;;;20871834;28;19923;-76
2022/05/31 03:11:05;;;;;;;;;;;15.80;59.30;;;;;;20891636;28;19913;-77
2022/05/31 03:21:10;;;;;;;;;;;15.80;59.30;;;;;;20887710;28;19920;-77
2022/05/31 03:31:11;;;;;;;;;;;15.80;59.20;;;;;;20887666;28;19913;-77
2022/05/31 03:41:11;;;;;;;;;;;15.80;59.20;;;;;;20886350;28;19924;-78
2022/05/31 03:51:17;;;;;;;;;;;15.80;59.10;;;;;;20871246;28;20424;-77
2022/05/31 04:01:19;;;;;;;;;;;15.80;59.10;;;;;;20902358;28;20014;-78
2022/05/31 04:11:21;;;;;;;;;;;15.70;59.00;;;;;;20886338;28;19917;-77
2022/05/31 04:21:21;;;;;;;;;;;15.70;59.00;;;;;;20885451;28;19925;-77
2022/05/31 04:31:22;;;;;;;;;;;15.70;59.00;;;;;;20880486;28;20000;-77
2022/05/31 04:41:48;;;;;;;;;;;15.70;59.00;;;;;;20903881;28;19947;-77
2022/05/31 04:51:56;;;;;;;;;;;15.70;59.00;;;;;;20885308;28;19999;-77
2022/05/31 05:01:59;;;;;;;;;;;15.70;59.10;;;;;;20879910;28;19924;-77
2022/05/31 05:12:17;;;;;;;;;;;15.70;59.10;;;;;;20885613;28;20422;-77
2022/05/31 05:22:22;;;;;;;;;;;15.90;59.20;;;;;;20899077;28;19916;-77
2022/05/31 05:32:22;;;;;;;;;;;15.80;59.20;;;;;;20897568;28;19989;-73
2022/05/31 05:42:42;;;;;;;;;;;15.80;59.20;;;;;;20879426;28;19999;-72
2022/05/31 05:52:55;;;;;;;;;;;15.80;59.20;;;;;;20880263;28;19913;-73
2022/05/31 06:03:07;;;;;;;;;;;15.90;59.30;;;;;;20895664;28;19913;-79
2022/05/31 06:13:30;;;;;;;;;;;15.90;59.30;;;;;;20880725;28;20364;-77
2022/05/31 06:23:31;;;;;;;;;;;15.90;59.30;;;;;;20859010;28;20460;-75
2022/05/31 06:33:34;;;;;;;;;;;16.00;59.40;;;;;;20872345;28;19908;-73
2022/05/31 06:43:35;;;;;;;;;;;16.00;59.40;;;;;;20867220;28;19928;-73
2022/05/31 07:04:46;;;;;;;;;;;16.00;59.30;;;;;;20895405;28;20379;-73
2022/05/31 07:14:46;;;;;;;;;;;16.00;59.30;;;;;;20870329;28;19916;-77
2022/05/31 07:25:17;;;;;;;;;;;16.10;59.30;;;;;;21131867;22;19925;-74
2022/05/31 07:35:25;;;;;;;;;;;16.10;59.20;;;;;;20757264;28;19909;-72
2022/05/31 07:45:26;;;;;;;;;;;16.10;59.20;;;;;;20789593;28;19917;-75
2022/05/31 07:55:28;;;;;;;;;;;16.20;59.20;;;;;;20753772;28;20309;-74
2022/05/31 08:05:49;;;;;;;;;;;16.10;59.10;;;;;;20765748;28;19978;-77
2022/05/31 08:15:49;;;;;;;;;;;16.20;59.10;;;;;;20755574;28;19952;-75
2022/05/31 08:25:54;;;;;;;;;;;16.20;59.00;;;;;;20817082;28;20328;-77
2022/05/31 08:35:54;;;;;;;;;;;16.20;59.00;;;;;;20807116;28;19963;-75
2022/05/31 08:45:57;;;;;;;;;;;16.30;59.00;;;;;;20824571;28;20368;-76
2022/05/31 09:06:42;;;;;;;;;;;16.30;58.90;;;;;;20786291;28;19921;-75
2022/05/31 09:16:50;;;;;;;;;;;16.30;59.00;;;;;;20752952;28;19910;-72
2022/05/31 09:27:17;;;;;;;;;;;16.30;59.00;;;;;;20733665;28;19920;-72
2022/05/31 09:37:37;;;;;;;;;;;16.40;59.00;;;;;;20812620;28;19971;-72
2022/05/31 09:47:37;;;;;;;;;;;16.40;58.90;;;;;;20804643;28;20008;-74
2022/05/31 09:57:38;;;;;;;;;;;16.40;58.90;;;;;;20777979;28;19916;-74
2022/05/31 10:08:15;;;;;;;;;;;16.50;58.90;;;;;;20781805;28;20042;-74
2022/05/31 10:18:26;;;;;;;;;;;16.40;58.90;;;;;;20821598;28;19963;-74
2022/05/31 10:28:31;;;;;;;;;;;16.40;58.90;;;;;;20785115;28;19949;-72
2022/05/31 10:38:33;;;;;;;;;;;16.40;58.80;;;;;;20802183;28;19940;-73
2022/05/31 10:48:34;;;;;;;;;;;16.40;58.80;;;;;;20741714;28;19909;-80
2022/05/31 10:58:47;;;;;;;;;;;16.40;58.60;;;;;;20747760;28;20288;-85
2022/05/31 11:19:40;;;;;;;;;;;16.40;58.60;;;;;;20788966;28;19917;-84
2022/05/31 11:29:56;;;;;;;;;;;16.40;58.70;;;;;;20784075;28;19909;-82
2022/05/31 11:40:16;;;;;;;;;;;16.40;58.70;;;;;;20767391;28;19925;-81
2022/05/31 11:50:33;;;;;;;;;;;16.50;58.40;;;;;;20783061;28;20467;-86
2022/05/31 12:00:38;;;;;;;;;;;16.60;57.90;;;;;;20731465;28;19936;-87
2022/05/31 12:10:47;;;;;;;;;;;16.60;57.50;;;;;;20795793;28;19916;-85
2022/05/31 12:20:53;;;;;;;;;;;16.60;57.10;;;;;;20764175;28;19917;-81
2022/05/31 12:30:54;;;;;;;;;;;16.60;56.70;;;;;;20724469;28;20008;-81
2022/05/31 12:40:54;;;;;;;;;;;16.70;56.50;;;;;;20760119;28;20416;-79
2022/05/31 12:50:55;;;;;;;;;;;16.70;56.50;;;;;;20802491;28;19909;-78
2022/05/31 13:00:56;;;;;;;;;;;16.70;56.60;;;;;;20765126;28;19924;-73
2022/05/31 13:21:17;;;;;;;;;;;16.80;56.90;;;;;;20778933;28;20365;-75
2022/05/31 13:31:19;;;;;;;;;;;16.80;57.00;;;;;;20804354;28;19913;-75
2022/05/31 13:41:20;;;;;;;;;;;16.80;57.20;;;;;;20812991;28;19924;-73
2022/05/31 13:51:22;;;;;;;;;;;16.90;57.10;;;;;;20770828;28;20010;-76
2022/05/31 14:01:38;;;;;;;;;;;16.90;57.20;;;;;;20746852;28;19921;-77
2022/05/31 14:11:48;;;;;;;;;;;16.90;57.20;;;;;;20753707;28;20317;-77
2022/05/31 14:21:49;;;;;;;;;;;16.90;57.20;;;;;;20728498;28;19925;-78
2022/05/31 14:32:07;;;;;;;;;;;16.90;57.20;;;;;;20765925;28;19909;-78
2022/05/31 14:42:35;;;;;;;;;;;17.00;57.30;;;;;;20794394;28;20148;-77
2022/05/31 14:52:46;;;;;;;;;;;17.00;57.40;;;;;;20747100;28;20427;-83
2022/05/31 15:02:47;;;;;;;;;;;17.10;57.30;;;;;;20748307;28;19925;-79
2022/05/31 15:23:24;;;;;;;;;;;17.20;56.50;;;;;;20827933;28;19925;-80
2022/05/31 15:33:24;;;;;;;;;;;17.40;56.10;;;;;;20809837;28;20011;-78
2022/05/31 15:53:44;;;;;;;;;;;17.80;54.90;;;;;;20811176;28;19913;-84
2022/05/31 16:03:46;;;;;;;;;;;17.90;55.30;;;;;;20788588;28;19947;-83
2022/05/31 16:13:46;;;;;;;;;;;18.10;55.50;;;;;;20769140;28;19967;-77
2022/05/31 16:23:51;;;;;;;;;;;18.20;55.60;;;;;;20793097;28;20428;-76
2022/05/31 16:33:52;;;;;;;;;;;18.20;55.80;;;;;;20821289;28;19915;-80
2022/05/31 16:43:53;;;;;;;;;;;18.30;55.90;;;;;;20807421;28;19967;-85
2022/05/31 16:53:55;;;;;;;;;;;18.20;56.10;;;;;;20826645;28;19917;-84
2022/05/31 17:03:58;;;;;;;;;;;18.20;56.30;;;;;;20820772;28;19923;-83
2022/05/31 17:24:18;;;;;;;;;;;18.00;56.50;;;;;;20820978;28;19959;-79
2022/05/31 17:34:18;;;;;;;;;;;17.90;56.50;;;;;;20796172;28;19917;-79
2022/05/31 17:44:19;;;;;;;;;;;17.80;56.50;;;;;;20749066;28;19924;-78
2022/05/31 17:54:20;;;;;;;;;;;17.80;56.60;;;;;;20791091;28;19956;-78
2022/05/31 18:04:21;;;;;;;;;;;17.60;56.60;;;;;;20798482;28;20357;-78
2022/05/31 18:14:21;;;;;;;;;;;17.60;56.80;;;;;;20807699;28;19917;-78
2022/05/31 18:24:22;;;;;;;;;;;17.50;56.90;;;;;;20791314;28;19917;-79
2022/05/31 18:34:23;;;;;;;;;;;17.40;57.10;;;;;;20800618;28;19919;-78
2022/05/31 18:44:23;;;;;;;;;;;17.50;57.40;;;;;;20824199;28;20365;-78
2022/05/31 18:54:24;;;;;;;;;;;17.50;57.60;;;;;;20791258;28;20257;-78
2022/05/31 19:04:25;;;;;;;;;;;17.40;57.70;;;;;;20783071;28;20003;-78
2022/05/31 19:14:26;;;;;;;;;;;17.40;57.90;;;;;;20778765;28;20004;-78
2022/05/31 19:24:27;;;;;;;;;;;17.40;58.00;;;;;;20804838;28;20003;-78
2022/05/31 19:34:27;;;;;;;;;;;17.30;58.10;;;;;;20794365;28;19956;-78
2022/05/31 19:44:28;;;;;;;;;;;17.30;58.30;;;;;;20816670;28;19939;-78
2022/05/31 19:54:28;;;;;;;;;;;17.30;58.40;;;;;;20797736;28;19917;-79
2022/05/31 20:04:30;;;;;;;;;;;17.30;58.60;;;;;;20794309;28;19920;-78
2022/05/31 20:14:31;;;;;;;;;;;17.20;58.70;;;;;;20779391;28;19913;-79
2022/05/31 20:24:31;;;;;;;;;;;17.20;58.80;;;;;;20746454;28;20046;-79
2022/05/31 20:34:32;;;;;;;;;;;17.20;58.90;;;;;;20751513;28;19917;-79
2022/05/31 20:44:33;;;;;;;;;;;17.20;59.00;;;;;;20750456;28;20285;-79
2022/05/31 20:54:35;;;;;;;;;;;17.20;59.10;;;;;;20778089;28;19920;-79
2022/05/31 21:04:35;;;;;;;;;;;17.20;59.20;;;;;;20771005;28;20254;-80
2022/05/31 21:14:36;;;;;;;;;;;17.20;59.30;;;;;;20797345;28;19912;-78
2022/05/31 21:24:37;;;;;;;;;;;17.10;59.40;;;;;;20790025;28;19926;-79
2022/05/31 21:34:40;;;;;;;;;;;17.10;59.40;;;;;;20794222;28;19916;-79
2022/05/31 21:44:41;;;;;;;;;;;17.10;59.60;;;;;;20810328;28;20262;-79
2022/05/31 21:54:43;;;;;;;;;;;17.10;59.60;;;;;;20791115;28;19959;-79
2022/05/31 22:04:44;;;;;;;;;;;17.10;59.60;;;;;;20763501;28;19913;-79
2022/05/31 22:14:44;;;;;;;;;;;17.10;59.70;;;;;;20812765;28;19917;-80
2022/05/31 22:35:08;;;;;;;;;;;17.10;59.70;;;;;;20808277;28;19948;-80
2022/05/31 22:45:09;;;;;;;;;;;17.10;59.80;;;;;;20803102;28;19917;-80
2022/05/31 22:55:09;;;;;;;;;;;17.10;59.80;;;;;;20773625;28;20488;-80
2022/05/31 23:05:10;;;;;;;;;;;17.10;59.90;;;;;;20790938;28;19913;-80
2022/05/31 23:15:10;;;;;;;;;;;17.00;59.90;;;;;;20774704;28;20042;-80
2022/05/31 23:25:11;;;;;;;;;;;17.00;59.90;;;;;;20804768;28;19962;-80
2022/05/31 23:35:13;;;;;;;;;;;17.00;60.00;;;;;;20777898;28;19909;-80
2022/05/31 23:45:13;;;;;;;;;;;17.00;60.00;;;;;;20791056;28;19913;-80
2022/05/31 23:55:14;;;;;;;;;;;17.00;60.00;;;;;;20801426;28;20373;-80
